TimeEST,TemperatureF,Dew PointF,Humidity,Sea Level PressureIn,VisibilityMPH,Wind Direction,Wind SpeedMPH,Gust SpeedMPH,PrecipitationIn,Events,Conditions,WindDirDegrees,DateUTC
12:54 AM,1.4,1.4,100,-9999,0.0,NW,71.3,80.6,N/A,Fog-Snow,Light Snow,310,2012-12-06 05:54:00
1:49 AM,1.4,1.4,100,-9999,0.0,NW,66.7,73.6,N/A,Fog-Snow,Light Snow,310,2012-12-06 06:49:00
2:57 AM,6.8,6.8,100,-9999,0.1,NW,63.3,-,N/A,Fog-Snow,Blowing Snow,310,2012-12-06 07:57:00
3:54 AM,1.4,1.4,100,-9999,0.1,NW,54.1,58.7,N/A,Fog-Snow,Blowing Snow,320,2012-12-06 08:54:00
4:54 AM,12.2,-7.6,41,-9999,120.0,NNW,71.3,-,N/A,,Clear,330,2012-12-06 09:54:00
5:58 AM,14.0,-13.0,29,-9999,120.0,NNW,64.4,-,N/A,,Clear,330,2012-12-06 10:58:00
6:53 AM,15.8,-11.2,30,-9999,120.0,NNW,61.0,-,N/A,,Clear,330,2012-12-06 11:53:00
7:52 AM,15.8,-22.0,17,-9999,120.0,NNW,48.3,57.5,N/A,,Partly Cloudy,340,2012-12-06 12:52:00
8:50 AM,17.6,-18.4,19,-9999,120.0,NNW,48.3,51.8,N/A,,Partly Cloudy,340,2012-12-06 13:50:00
9:50 AM,17.6,-18.4,19,-9999,120.0,NNW,41.4,46.0,N/A,,Partly Cloudy,340,2012-12-06 14:50:00
10:54 AM,17.6,-18.4,19,-9999,120.0,NNW,29.9,-,N/A,,Scattered Clouds,340,2012-12-06 15:54:00
11:58 AM,21.2,-9.4,26,-9999,120.0,NNW,34.5,-,N/A,,Scattered Clouds,330,2012-12-06 16:58:00
12:53 PM,24.8,-16.6,16,-9999,120.0,NNW,35.7,-,N/A,,Scattered Clouds,330,2012-12-06 17:53:00
1:53 PM,21.2,-11.2,24,-9999,120.0,NNW,18.4,-,N/A,,Partly Cloudy,340,2012-12-06 18:53:00
2:50 PM,24.8,-16.6,16,-9999,120.0,NNW,20.7,-,N/A,,Partly Cloudy,340,2012-12-06 19:50:00
3:53 PM,24.8,-7.6,24,-9999,120.0,NNW,24.2,-,N/A,,Partly Cloudy,340,2012-12-06 20:53:00
4:51 PM,24.8,-11.2,20,-9999,120.0,NW,13.8,-,N/A,,Partly Cloudy,320,2012-12-06 21:51:00
5:57 PM,26.6,-11.2,19,-9999,120.0,WNW,8.1,-,N/A,,Partly Cloudy,300,2012-12-06 22:57:00
6:51 PM,24.8,-5.8,26,-9999,120.0,West,12.7,-,N/A,,Scattered Clouds,270,2012-12-06 23:51:00
7:51 PM,24.8,-4.0,28,-9999,120.0,West,13.8,-,N/A,,Mostly Cloudy,270,2012-12-07 00:51:00
8:54 PM,23.0,-13.0,20,-9999,120.0,West,17.3,-,N/A,,Overcast,260,2012-12-07 01:54:00
9:52 PM,23.0,-9.4,24,-9999,120.0,West,25.3,-,N/A,,Overcast,260,2012-12-07 02:52:00
10:54 PM,19.4,-5.8,33,-9999,120.0,WSW,27.6,-,N/A,,Overcast,250,2012-12-07 03:54:00
11:54 PM,21.2,-5.8,30,-9999,120.0,West,28.8,-,N/A,,Overcast,260,2012-12-07 04:54:00